createdAt,value
2022-08-31T00:00:10.434Z,9.65
2022-08-31T00:02:56.436Z,9.02
2022-08-31T00:05:23.622Z,8.77
2022-08-31T00:07:50.591Z,8.88
2022-08-31T00:10:20.058Z,8.25
2022-08-31T00:12:59.617Z,8.48
2022-08-31T00:15:26.511Z,8.60
2022-08-31T00:17:53.860Z,8.88
2022-08-31T00:20:33.493Z,7.85
2022-08-31T00:23:01.420Z,7.95
2022-08-31T00:25:28.129Z,8.70
2022-08-31T00:27:55.865Z,7.85
2022-08-31T00:30:23.399Z,7.95
2022-08-31T00:32:50.204Z,8.32
2022-08-31T00:35:17.071Z,9.13
2022-08-31T00:37:43.756Z,9.45
2022-08-31T00:40:10.964Z,8.80
2022-08-31T00:42:37.763Z,9.23
2022-08-31T00:45:05.596Z,8.30
2022-08-31T00:47:32.301Z,7.38
2022-08-31T00:49:59.996Z,7.80
2022-08-31T00:52:33.400Z,8.18
2022-08-31T00:55:27.768Z,8.32
2022-08-31T00:57:56.607Z,9.82
2022-08-31T01:02:52.637Z,9.05
2022-08-31T01:05:19.637Z,8.85
2022-08-31T01:07:47.868Z,9.43
2022-08-31T01:10:17.206Z,8.73
2022-08-31T01:12:44.780Z,8.90
2022-08-31T01:15:13.024Z,9.63
2022-08-31T01:17:40.752Z,8.45
2022-08-31T01:20:25.861Z,7.47
2022-08-31T01:23:04.156Z,8.27
2022-08-31T01:25:33.343Z,8.23
2022-08-31T01:28:02.550Z,7.47
2022-08-31T01:30:29.226Z,7.85
2022-08-31T01:32:55.924Z,7.40
2022-08-31T01:35:22.623Z,7.35
2022-08-31T01:37:49.740Z,7.95
2022-08-31T01:40:17.384Z,7.75
2022-08-31T01:42:44.065Z,7.70
2022-08-31T01:45:11.936Z,8.32
2022-08-31T01:47:40.497Z,8.35
2022-08-31T01:50:08.040Z,9.32
2022-08-31T01:52:37.317Z,8.13
2022-08-31T01:55:06.266Z,7.35
2022-08-31T01:57:34.597Z,8.15
2022-08-31T02:00:04.476Z,8.15
2022-08-31T02:02:32.001Z,7.30
2022-08-31T02:04:59.156Z,7.35
2022-08-31T02:07:26.654Z,8.27
2022-08-31T02:09:54.696Z,7.18
2022-08-31T02:12:21.537Z,7.05
2022-08-31T02:14:48.433Z,7.90
2022-08-31T02:17:15.114Z,6.43
2022-08-31T02:19:41.829Z,10.25
2022-08-31T02:22:08.529Z,14.02
2022-08-31T02:24:35.278Z,14.55
2022-08-31T02:27:02.055Z,10.82
2022-08-31T02:29:29.095Z,9.90
2022-08-31T02:31:57.036Z,8.43
2022-08-31T02:34:23.765Z,8.45
2022-08-31T02:36:50.438Z,7.78
2022-08-31T02:39:17.164Z,7.78
2022-08-31T02:41:43.898Z,7.40
2022-08-31T02:44:10.660Z,8.68
2022-08-31T02:46:37.546Z,7.97
2022-08-31T02:49:04.694Z,7.93
2022-08-31T02:51:31.799Z,10.85
2022-08-31T02:53:58.507Z,10.00
2022-08-31T02:56:25.981Z,10.85
2022-08-31T02:58:55.245Z,11.98
2022-08-31T03:01:23.554Z,11.40
2022-08-31T03:03:50.465Z,13.40
2022-08-31T03:06:18.782Z,13.23
2022-08-31T03:08:46.424Z,13.00
2022-08-31T03:11:13.529Z,10.80
2022-08-31T03:13:40.670Z,11.05
2022-08-31T03:16:07.570Z,9.85
2022-08-31T03:18:34.720Z,10.18
2022-08-31T03:21:02.517Z,9.90
2022-08-31T03:23:29.319Z,10.30
2022-08-31T03:25:56.134Z,9.85
2022-08-31T03:28:22.866Z,9.50
2022-08-31T03:30:49.839Z,9.20
2022-08-31T03:33:16.841Z,9.35
2022-08-31T03:35:44.389Z,9.43
2022-08-31T03:38:12.955Z,12.80
2022-08-31T03:40:43.884Z,12.55
2022-08-31T03:43:12.074Z,12.18
2022-08-31T03:45:40.217Z,10.75
2022-08-31T03:48:12.282Z,13.18
2022-08-31T03:50:41.029Z,13.85
2022-08-31T03:53:08.578Z,11.27
2022-08-31T03:55:38.564Z,10.45
2022-08-31T03:58:06.550Z,12.10
2022-08-31T04:00:33.999Z,10.70
2022-08-31T04:03:01.727Z,13.25
2022-08-31T04:05:29.885Z,13.25
2022-08-31T04:07:56.843Z,12.35
2022-08-31T04:10:23.629Z,12.30
2022-08-31T04:12:50.820Z,13.93
2022-08-31T04:15:18.492Z,12.93
2022-08-31T04:17:47.340Z,14.65
2022-08-31T04:22:40.729Z,14.63
2022-08-31T04:25:10.342Z,13.00
2022-08-31T04:27:38.373Z,13.52
2022-08-31T04:30:07.722Z,13.15
2022-08-31T04:32:35.409Z,12.38
2022-08-31T04:35:02.148Z,10.93
2022-08-31T04:37:29.559Z,11.60
2022-08-31T04:39:59.139Z,12.75
2022-08-31T04:42:26.383Z,11.73
2022-08-31T04:44:53.182Z,13.88
2022-08-31T04:47:20.517Z,15.20
2022-08-31T04:49:48.272Z,11.05
2022-08-31T04:52:15.003Z,10.90
2022-08-31T04:54:42.029Z,10.98
2022-08-31T04:57:08.726Z,10.52
2022-08-31T04:59:35.543Z,9.80
2022-08-31T05:02:04.123Z,10.82
2022-08-31T05:04:31.985Z,12.35
2022-08-31T05:06:58.997Z,13.88
2022-08-31T05:09:26.102Z,13.32
2022-08-31T05:11:54.306Z,15.52
2022-08-31T05:14:22.344Z,10.98
2022-08-31T05:16:50.040Z,9.23
2022-08-31T05:19:17.201Z,10.00
2022-08-31T05:21:44.949Z,10.80
2022-08-31T05:24:15.584Z,13.82
2022-08-31T05:26:47.194Z,17.75
2022-08-31T05:29:15.109Z,16.63
2022-08-31T05:31:42.691Z,16.05
2022-08-31T05:34:09.558Z,16.63
2022-08-31T05:36:36.334Z,17.35
2022-08-31T05:39:03.083Z,15.95
2022-08-31T05:41:30.502Z,17.08
2022-08-31T05:43:57.411Z,18.90
2022-08-31T05:46:24.200Z,19.92
2022-08-31T05:48:51.167Z,18.85
2022-08-31T05:51:19.016Z,17.60
2022-08-31T05:53:47.059Z,16.85
2022-08-31T05:56:20.135Z,16.30
2022-08-31T05:58:48.656Z,16.38
2022-08-31T06:01:22.374Z,16.10
2022-08-31T06:03:49.933Z,15.85
2022-08-31T06:06:16.907Z,15.38
2022-08-31T06:08:44.049Z,17.55
2022-08-31T06:11:15.827Z,16.27
2022-08-31T06:13:42.677Z,14.90
2022-08-31T06:16:09.921Z,15.57
2022-08-31T06:18:41.321Z,13.95
2022-08-31T06:21:10.247Z,14.05
2022-08-31T06:26:08.104Z,15.07
2022-08-31T06:28:35.086Z,14.80
2022-08-31T06:31:07.934Z,15.27
2022-08-31T06:33:42.346Z,19.10
2022-08-31T06:36:14.560Z,17.33
2022-08-31T06:38:43.464Z,24.60
2022-08-31T06:41:25.495Z,17.60
2022-08-31T06:43:52.181Z,13.07
2022-08-31T06:46:20.076Z,14.30
2022-08-31T06:48:50.782Z,14.77
2022-08-31T06:51:18.184Z,16.33
2022-08-31T06:53:45.250Z,13.07
2022-08-31T06:56:30.599Z,12.50
2022-08-31T06:58:59.402Z,15.88
2022-08-31T07:01:35.703Z,19.05
2022-08-31T07:04:07.230Z,27.75
2022-08-31T07:06:41.040Z,37.85
2022-08-31T07:09:10.114Z,40.08
2022-08-31T07:11:44.605Z,44.75
2022-08-31T07:14:14.267Z,45.63
2022-08-31T07:16:42.311Z,43.20
2022-08-31T07:19:09.675Z,40.45
2022-08-31T07:21:48.209Z,39.30
2022-08-31T07:24:18.133Z,38.85
2022-08-31T07:27:10.060Z,37.28
2022-08-31T07:29:40.793Z,34.22
2022-08-31T07:32:09.015Z,24.08
2022-08-31T07:34:36.318Z,25.48
2022-08-31T07:37:23.614Z,23.85
2022-08-31T07:42:38.885Z,12.02
2022-08-31T07:45:10.139Z,12.88
2022-08-31T07:47:46.221Z,12.85
2022-08-31T07:50:13.861Z,14.50
2022-08-31T07:52:48.565Z,11.52
2022-08-31T07:55:16.819Z,10.45
2022-08-31T07:57:44.283Z,11.43
2022-08-31T08:00:15.452Z,11.73
2022-08-31T08:02:50.845Z,11.05
2022-08-31T08:05:26.856Z,12.80
2022-08-31T08:07:57.624Z,11.38
2022-08-31T08:10:26.429Z,12.18
2022-08-31T08:15:27.517Z,10.18
2022-08-31T08:17:54.270Z,12.82
2022-08-31T08:20:25.727Z,11.77
2022-08-31T08:23:02.045Z,10.98
2022-08-31T08:25:28.758Z,10.30
2022-08-31T08:30:24.300Z,6.70
2022-08-31T08:32:50.961Z,5.80
2022-08-31T08:35:17.761Z,7.13
2022-08-31T08:37:58.451Z,6.15
2022-08-31T08:40:31.995Z,7.03
2022-08-31T08:43:00.038Z,6.80
2022-08-31T08:45:27.183Z,7.35
2022-08-31T08:47:56.979Z,6.05
2022-08-31T08:50:28.074Z,5.88
2022-08-31T08:52:57.268Z,6.00
2022-08-31T08:55:40.813Z,5.90
2022-08-31T08:58:10.551Z,6.40
2022-08-31T09:00:46.733Z,5.28
2022-08-31T09:03:30.971Z,5.70
2022-08-31T09:06:08.020Z,7.38
2022-08-31T09:08:54.896Z,6.10
2022-08-31T09:11:54.977Z,5.35
2022-08-31T09:14:47.726Z,6.68
2022-08-31T09:17:37.649Z,8.23
2022-08-31T09:20:05.806Z,9.45
2022-08-31T09:22:47.201Z,8.00
2022-08-31T09:25:26.595Z,8.32
2022-08-31T09:27:57.737Z,7.35
2022-08-31T09:30:45.639Z,6.85
2022-08-31T09:33:22.628Z,6.40
2022-08-31T09:35:56.728Z,6.18
2022-08-31T09:38:29.966Z,6.72
2022-08-31T09:40:56.871Z,7.05
2022-08-31T09:43:25.456Z,5.45
2022-08-31T09:46:01.534Z,10.60
2022-08-31T09:48:51.504Z,7.25
2022-08-31T09:51:30.302Z,6.38
2022-08-31T09:54:23.165Z,6.10
2022-08-31T09:56:55.555Z,6.07
2022-08-31T09:59:49.791Z,6.30
2022-08-31T10:02:26.237Z,5.72
2022-08-31T10:04:58.364Z,6.07
2022-08-31T10:07:38.113Z,5.60
2022-08-31T10:10:08.250Z,4.78
2022-08-31T10:13:02.101Z,4.57
2022-08-31T10:15:42.219Z,4.72
2022-08-31T10:18:18.690Z,4.75
2022-08-31T10:20:53.960Z,5.60
2022-08-31T10:23:36.963Z,4.80
2022-08-31T10:26:29.192Z,4.63
2022-08-31T10:28:59.326Z,4.00
2022-08-31T10:31:32.019Z,4.55
2022-08-31T10:34:19.696Z,4.45
2022-08-31T10:36:48.376Z,4.25
2022-08-31T10:39:34.582Z,4.80
2022-08-31T10:42:05.524Z,5.05
2022-08-31T10:44:52.254Z,4.68
2022-08-31T10:47:22.913Z,4.85
2022-08-31T10:50:00.892Z,4.65
2022-08-31T10:52:34.542Z,5.72
2022-08-31T10:55:29.204Z,4.03
2022-08-31T10:58:26.425Z,5.22
2022-08-31T11:01:10.257Z,4.57
2022-08-31T11:03:52.949Z,5.40
2022-08-31T11:06:31.038Z,7.10
2022-08-31T11:09:03.777Z,5.15
2022-08-31T11:11:46.495Z,5.68
2022-08-31T11:14:21.122Z,4.53
2022-08-31T11:17:02.924Z,5.53
2022-08-31T11:20:00.947Z,4.85
2022-08-31T11:22:34.998Z,5.50
2022-08-31T11:25:08.238Z,5.80
2022-08-31T11:27:39.518Z,4.85
2022-08-31T11:30:11.466Z,5.07
2022-08-31T11:32:59.693Z,4.78
2022-08-31T11:36:10.145Z,4.95
2022-08-31T11:38:56.753Z,5.45
2022-08-31T11:41:51.093Z,5.15
2022-08-31T11:44:30.001Z,5.40
2022-08-31T11:47:14.633Z,5.75
2022-08-31T11:49:41.265Z,6.05
2022-08-31T11:52:34.640Z,6.07
2022-08-31T11:55:27.307Z,5.75
2022-08-31T11:58:06.407Z,5.53
2022-08-31T12:00:48.797Z,5.05
2022-08-31T12:03:50.790Z,5.95
2022-08-31T12:06:28.233Z,5.70
2022-08-31T12:09:27.499Z,5.15
2022-08-31T12:14:33.224Z,5.40
2022-08-31T12:17:34.023Z,5.85
2022-08-31T12:20:09.240Z,5.18
2022-08-31T12:23:15.378Z,4.82
2022-08-31T12:26:16.737Z,5.25
2022-08-31T12:29:02.193Z,5.60
2022-08-31T12:31:28.967Z,5.30
2022-08-31T12:34:13.092Z,6.07
2022-08-31T12:36:40.341Z,4.97
2022-08-31T12:39:33.943Z,5.75
2022-08-31T12:42:05.610Z,5.47
2022-08-31T12:44:36.950Z,4.78
2022-08-31T12:47:24.042Z,4.95
2022-08-31T12:50:21.080Z,5.30
2022-08-31T12:53:25.520Z,4.95
2022-08-31T12:56:00.989Z,5.03
2022-08-31T12:59:01.695Z,4.72
2022-08-31T13:01:28.670Z,5.43
2022-08-31T13:04:00.029Z,4.90
2022-08-31T13:06:30.062Z,5.82
2022-08-31T13:08:59.130Z,4.65
2022-08-31T13:11:40.709Z,5.13
2022-08-31T13:14:20.053Z,5.45
2022-08-31T13:16:51.156Z,4.40
2022-08-31T13:19:29.679Z,5.05
2022-08-31T13:22:06.469Z,4.82
2022-08-31T13:24:46.054Z,5.57
2022-08-31T13:27:24.774Z,4.55
2022-08-31T13:29:53.512Z,5.63
2022-08-31T13:34:58.958Z,7.68
2022-08-31T13:37:30.740Z,5.43
2022-08-31T13:39:58.646Z,5.13
2022-08-31T13:42:32.348Z,5.50
2022-08-31T13:45:09.218Z,6.03
2022-08-31T13:47:51.885Z,4.95
2022-08-31T13:50:28.106Z,5.45
2022-08-31T13:53:24.856Z,4.88
2022-08-31T13:55:44.775Z,5.20
2022-08-31T13:58:31.115Z,5.45
2022-08-31T14:01:28.469Z,5.55
2022-08-31T14:03:59.904Z,5.47
2022-08-31T14:06:37.997Z,5.65
2022-08-31T14:09:17.983Z,5.55
2022-08-31T14:11:55.122Z,5.43
2022-08-31T14:14:29.722Z,5.32
2022-08-31T14:16:57.614Z,5.30
2022-08-31T14:19:38.937Z,6.53
2022-08-31T14:22:25.776Z,5.60
2022-08-31T14:24:55.510Z,6.05
2022-08-31T14:27:23.411Z,5.88
2022-08-31T14:29:52.267Z,5.35
2022-08-31T14:32:20.073Z,5.35
2022-08-31T14:34:51.188Z,5.75
2022-08-31T14:37:28.901Z,5.50
2022-08-31T14:40:05.505Z,5.93
2022-08-31T14:42:38.147Z,6.22
2022-08-31T14:45:08.506Z,6.70
2022-08-31T14:47:41.902Z,5.30
2022-08-31T14:50:11.454Z,6.10
2022-08-31T14:52:44.627Z,6.40
2022-08-31T14:55:13.486Z,6.05
2022-08-31T14:57:42.175Z,5.80
2022-08-31T15:00:11.778Z,6.43
2022-08-31T15:05:09.924Z,5.65
2022-08-31T15:07:39.490Z,5.60
2022-08-31T15:10:08.943Z,5.18
2022-08-31T15:12:37.039Z,5.25
2022-08-31T15:15:04.581Z,7.38
2022-08-31T15:17:33.935Z,6.43
2022-08-31T15:20:03.111Z,6.28
2022-08-31T15:22:29.781Z,6.28
2022-08-31T15:24:56.503Z,6.93
2022-08-31T15:27:25.532Z,5.70
2022-08-31T15:29:56.131Z,5.72
2022-08-31T15:32:22.921Z,6.05
2022-08-31T15:34:56.920Z,6.90
2022-08-31T15:37:27.413Z,6.03
2022-08-31T15:40:00.733Z,8.07
2022-08-31T15:42:29.606Z,6.95
2022-08-31T15:44:57.179Z,5.75
2022-08-31T15:48:03.195Z,6.05
2022-08-31T15:50:31.707Z,5.97
2022-08-31T15:53:05.217Z,6.57
2022-08-31T15:55:36.245Z,5.60
2022-08-31T15:58:04.266Z,6.60
2022-08-31T16:00:32.798Z,6.47
2022-08-31T16:03:02.151Z,6.53
2022-08-31T16:05:35.855Z,6.47
2022-08-31T16:08:02.972Z,6.80
2022-08-31T16:10:31.076Z,6.38
2022-08-31T16:12:57.982Z,6.88
2022-08-31T16:15:25.477Z,7.07
2022-08-31T16:17:57.240Z,7.38
2022-08-31T16:20:24.018Z,6.25
2022-08-31T16:22:50.876Z,7.03
2022-08-31T16:25:17.713Z,7.20
2022-08-31T16:27:47.336Z,7.43
2022-08-31T16:30:14.696Z,7.35
2022-08-31T16:32:41.417Z,7.95
2022-08-31T16:35:08.561Z,7.10
2022-08-31T16:37:35.271Z,6.93
2022-08-31T16:40:02.477Z,7.85
2022-08-31T16:42:29.357Z,7.28
2022-08-31T16:45:01.269Z,7.22
2022-08-31T16:47:29.343Z,7.18
2022-08-31T16:49:56.426Z,7.25
2022-08-31T16:52:28.056Z,6.88
2022-08-31T16:54:57.382Z,7.63
2022-08-31T16:57:27.365Z,8.30
2022-08-31T16:59:58.038Z,8.23
2022-08-31T17:02:25.244Z,10.55
2022-08-31T17:04:54.312Z,8.15
2022-08-31T17:07:23.636Z,7.97
2022-08-31T17:09:51.048Z,7.35
2022-08-31T17:12:21.662Z,7.80
2022-08-31T17:14:52.778Z,8.57
2022-08-31T17:17:22.681Z,9.50
2022-08-31T17:19:50.015Z,10.05
2022-08-31T17:22:25.735Z,8.98
2022-08-31T17:24:57.800Z,7.72
2022-08-31T17:27:26.026Z,7.55
2022-08-31T17:29:55.277Z,8.20
2022-08-31T17:32:24.970Z,7.28
2022-08-31T17:34:54.486Z,8.38
2022-08-31T17:37:32.683Z,8.32
2022-08-31T17:40:00.496Z,9.43
2022-08-31T17:42:28.238Z,6.40
2022-08-31T17:44:56.884Z,6.95
2022-08-31T17:47:25.320Z,6.85
2022-08-31T17:49:52.721Z,8.13
2022-08-31T17:52:21.746Z,7.63
2022-08-31T17:54:51.125Z,6.53
2022-08-31T17:57:23.234Z,7.45
2022-08-31T17:59:49.930Z,8.90
2022-08-31T18:02:21.159Z,16.08
2022-08-31T18:04:48.931Z,7.10
2022-08-31T18:07:16.331Z,7.55
2022-08-31T18:09:45.500Z,8.10
2022-08-31T18:12:13.732Z,8.13
2022-08-31T18:14:41.636Z,7.35
2022-08-31T18:17:11.442Z,8.43
2022-08-31T18:19:38.422Z,8.45
2022-08-31T18:22:05.964Z,8.60
2022-08-31T18:24:35.611Z,11.60
2022-08-31T18:27:04.175Z,7.80
2022-08-31T18:29:34.481Z,7.57
2022-08-31T18:32:05.418Z,7.88
2022-08-31T18:34:35.328Z,7.32
2022-08-31T18:37:02.342Z,7.93
2022-08-31T18:39:51.146Z,7.95
2022-08-31T18:42:38.431Z,7.70
2022-08-31T18:45:20.979Z,8.00
2022-08-31T18:50:45.833Z,7.22
2022-08-31T18:53:29.299Z,5.82
2022-08-31T18:56:07.829Z,11.18
2022-08-31T18:58:35.796Z,8.98
2022-08-31T19:01:03.240Z,8.20
2022-08-31T19:03:30.264Z,7.60
2022-08-31T19:05:57.308Z,7.68
2022-08-31T19:08:24.901Z,8.10
2022-08-31T19:13:20.034Z,7.22
2022-08-31T19:15:47.143Z,7.85
2022-08-31T19:18:14.062Z,6.63
2022-08-31T19:20:40.891Z,7.80
2022-08-31T19:23:08.264Z,7.18
2022-08-31T19:25:42.297Z,7.28
2022-08-31T19:28:09.173Z,8.30
2022-08-31T19:30:37.170Z,6.88
2022-08-31T19:33:08.523Z,6.93
2022-08-31T19:35:36.510Z,7.45
2022-08-31T19:38:03.430Z,7.85
2022-08-31T19:40:38.365Z,6.50
2022-08-31T19:45:54.322Z,6.15
2022-08-31T19:48:24.002Z,6.65
2022-08-31T19:50:52.140Z,6.20
2022-08-31T19:53:21.586Z,5.55
2022-08-31T19:55:51.362Z,6.25
2022-08-31T19:58:26.589Z,5.43
2022-08-31T20:01:00.788Z,6.20
2022-08-31T20:03:28.246Z,6.20
2022-08-31T20:05:55.168Z,6.22
2022-08-31T20:08:21.883Z,6.28
2022-08-31T20:10:48.627Z,6.90
2022-08-31T20:13:15.313Z,6.28
2022-08-31T20:15:44.217Z,8.43
2022-08-31T20:18:14.231Z,7.65
2022-08-31T20:20:45.758Z,7.57
2022-08-31T20:23:16.641Z,7.82
2022-08-31T20:25:49.358Z,7.22
2022-08-31T20:28:16.899Z,7.45
2022-08-31T20:30:43.943Z,8.25
2022-08-31T20:33:11.936Z,6.72
2022-08-31T20:35:47.575Z,7.50
2022-08-31T20:38:15.841Z,6.82
2022-08-31T20:40:44.284Z,6.95
2022-08-31T20:43:12.766Z,6.57
2022-08-31T20:45:41.077Z,6.35
2022-08-31T20:48:27.120Z,6.03
2022-08-31T20:50:53.837Z,6.45
2022-08-31T20:53:42.228Z,5.75
2022-08-31T20:56:08.080Z,5.57
2022-08-31T20:58:35.143Z,7.20
2022-08-31T21:01:08.053Z,5.93
2022-08-31T21:03:34.878Z,6.13
2022-08-31T21:06:11.573Z,5.65
2022-08-31T21:08:40.056Z,5.63
2022-08-31T21:11:25.044Z,5.65
2022-08-31T21:13:53.086Z,6.55
2022-08-31T21:16:20.223Z,6.57
2022-08-31T21:19:08.056Z,6.05
2022-08-31T21:21:34.742Z,6.18
2022-08-31T21:24:01.405Z,6.72
2022-08-31T21:26:28.293Z,6.20
2022-08-31T21:28:56.752Z,6.00
2022-08-31T21:31:28.850Z,5.72
2022-08-31T21:34:01.426Z,5.95
2022-08-31T21:36:29.614Z,5.95
2022-08-31T21:38:59.768Z,5.93
2022-08-31T21:41:28.053Z,6.85
2022-08-31T21:43:57.650Z,6.55
2022-08-31T21:46:27.260Z,5.78
2022-08-31T21:48:56.725Z,5.88
2022-08-31T21:51:27.834Z,6.68
2022-08-31T21:53:56.797Z,5.75
2022-08-31T21:56:26.404Z,6.10
2022-08-31T21:58:55.467Z,6.95
2022-08-31T22:01:24.118Z,6.25
2022-08-31T22:03:54.874Z,6.05
2022-08-31T22:06:28.138Z,6.57
2022-08-31T22:09:00.757Z,7.00
2022-08-31T22:11:30.501Z,6.18
2022-08-31T22:13:59.242Z,6.50
2022-08-31T22:16:26.465Z,6.47
2022-08-31T22:19:03.027Z,6.40
2022-08-31T22:21:34.773Z,6.43
2022-08-31T22:24:05.320Z,6.50
2022-08-31T22:26:36.077Z,6.97
2022-08-31T22:29:04.895Z,6.15
2022-08-31T22:31:36.112Z,6.45
2022-08-31T22:34:03.971Z,6.50
2022-08-31T22:36:34.560Z,6.45
2022-08-31T22:39:10.450Z,6.65
2022-08-31T22:41:38.684Z,6.72
2022-08-31T22:44:06.529Z,6.78
2022-08-31T22:46:33.784Z,7.05
2022-08-31T22:49:00.775Z,7.28
2022-08-31T22:51:27.867Z,7.22
2022-08-31T22:53:54.554Z,7.47
2022-08-31T22:56:27.894Z,6.85
2022-08-31T22:58:57.527Z,6.95
2022-08-31T23:01:29.887Z,7.03
2022-08-31T23:03:58.407Z,7.55
2022-08-31T23:06:26.046Z,6.68
2022-08-31T23:08:54.175Z,6.50
2022-08-31T23:11:22.662Z,6.88
2022-08-31T23:13:55.691Z,6.85
2022-08-31T23:16:34.793Z,7.45
2022-08-31T23:19:14.309Z,7.20
2022-08-31T23:21:46.755Z,7.43
2022-08-31T23:24:34.590Z,6.85
2022-08-31T23:27:04.513Z,7.03
2022-08-31T23:29:45.744Z,7.43
2022-08-31T23:32:13.490Z,6.97
2022-08-31T23:34:41.790Z,7.53
2022-08-31T23:37:10.571Z,7.28
2022-08-31T23:39:43.854Z,7.35
2022-08-31T23:42:13.732Z,7.03
2022-08-31T23:44:44.094Z,6.68
2022-08-31T23:47:17.917Z,7.43
2022-08-31T23:49:46.046Z,7.00
2022-08-31T23:52:19.093Z,6.75
2022-08-31T23:54:49.937Z,7.55
2022-08-31T23:57:31.422Z,7.47
